Latest Weather Observations for Flinders Reef

IDQ60801

Issued at 7:06 pm EST Friday 19 December 2014 (issued every 30 minutes, with the page automatically refreshed every 10 minutes)

About weather observations | Map of weather stations | Latest weather observations for QLD | Other Formats
Station Details ID: 200783 Name: FLINDERS REEF Lat: -17.72 Lon: 148.45 Height: 2.6 m
Data from the previous 72 hours. | See also: Recent months at Flinders Reef
Date/Time
EST
Temp
°C
App
Temp
°C
Dew
Point
Rel
Hum
%
Delta-T
°C
Wind Press
QNH
hPa
Press
MSL
hPa
Rain
since 9 am
mm
Dir
 
Spd
km/h
Gust
km/h
Spd
kts
Gust
kts
19/07:00pm - - - - - E 7 17 4 9 1010.7 - -
19/06:30pm - - - - - E 6 13 3 7 1010.6 - -
19/06:24pm - - - - - ESE 6 6 3 3 1010.6 1010.5 -
19/06:00pm - - - - - CALM 0 6 0 3 1010.4 - -
19/05:30pm - - - - - NE 7 11 4 6 1010.0 - -
19/05:24pm - - - - - NE 9 11 5 6 1010.0 1009.9 -
19/05:00pm - - - - - NNE 9 11 5 6 1009.9 - -
19/04:30pm - - - - - NNE 9 11 5 6 1009.7 - -
19/04:24pm - - - - - NNE 9 11 5 6 1009.7 1009.6 -
19/04:00pm - - - - - NNE 6 9 3 5 1009.5 - -
19/03:30pm - - - - - NNE 4 7 2 4 1009.8 - -
19/03:24pm - - - - - CALM 0 0 0 0 1009.9 1009.8 -
19/03:00pm - - - - - CALM 0 6 0 3 1010.0 - -
19/02:30pm - - - - - CALM 0 6 0 3 1010.3 - -
19/02:24pm - - - - - CALM 0 0 0 0 1010.3 1010.2 -
19/02:00pm - - - - - NNE 6 7 3 4 1010.5 - -
19/01:30pm - - - - - NNE 9 11 5 6 1010.7 - -
19/01:24pm - - - - - NNE 9 11 5 6 1010.7 1010.6 -
19/01:00pm - - - - - NNE 7 9 4 5 1011.0 - -
19/12:30pm - - - - - NNE 7 11 4 6 1011.2 - -
19/12:24pm - - - - - NNE 7 9 4 5 1011.3 1011.2 -
19/12:00pm - - - - - NE 7 11 4 6 1011.5 - -
19/11:30am - - - - - NE 9 11 5 6 1011.9 - -
19/11:24am - - - - - NE 7 11 4 6 1012.0 1011.9 -
19/11:00am - - - - - NE 9 13 5 7 1012.3 - -
19/10:30am - - - - - NE 7 11 4 6 1012.5 - -
19/10:24am - - - - - NE 9 9 5 5 1012.5 1012.4 -
19/10:00am - - - - - NE 9 13 5 7 1012.6 - -
19/09:30am - - - - - NE 11 15 6 8 1012.7 - -
19/09:24am - - - - - NE 13 - 7 - - 1012.6 -
19/09:00am - - - - - NE 13 17 7 9 1012.6 - -
19/08:30am - - - - - NE 17 22 9 12 1012.3 - -
19/08:24am - - - - - NE 17 - 9 - - 1012.1 -
19/08:00am - - - - - NE 20 24 11 13 1012.0 - -
19/07:30am - - - - - ENE 20 24 11 13 1011.7 - -
19/07:24am - - - - - ENE 20 - 11 - - 1011.5 -
19/07:00am - - - - - ENE 20 24 11 13 1011.4 - -
19/06:30am - - - - - NE 15 20 8 11 1011.3 - -
19/06:24am - - - - - NE 17 - 9 - - 1011.2 -
19/06:00am - - - - - NE 19 24 10 13 1011.0 - -
19/05:30am - - - - - ENE 19 24 10 13 1010.7 - -
19/05:24am - - - - - ENE 19 - 10 - - 1010.6 -
19/05:00am - - - - - ENE 15 17 8 9 1010.8 - -
19/04:30am - - - - - ENE 13 15 7 8 1010.9 - -
19/04:24am - - - - - ENE 13 - 7 - - 1010.7 -
19/04:00am - - - - - ENE 13 15 7 8 1010.9 - -
19/03:30am - - - - - ENE 11 13 6 7 1011.2 - -
19/03:24am - - - - - ENE 11 - 6 - - 1011.1 -
19/03:00am - - - - - ENE 9 11 5 6 1011.7 - -
19/02:30am - - - - - ENE 13 17 7 9 1011.3 - -
19/02:24am - - - - - ENE 15 - 8 - - 1011.1 -
19/02:00am - - - - - ENE 19 24 10 13 1010.9 - -
19/01:30am - - - - - ENE 11 13 6 7 1011.6 - -
19/01:24am - - - - - ENE 11 - 6 - - 1011.5 -
19/01:00am - - - - - ENE 11 17 6 9 1011.7 - -
19/12:30am - - - - - ENE 15 17 8 9 1011.6 - -
19/12:24am - - - - - ENE 13 - 7 - - 1011.6 -
19/12:00am - - - - - NE 11 13 6 7 1012.1 - -
 
Date/Time
EST
Temp
°C
App
Temp
°C
Dew
Point
Rel
Hum
%
Delta-T
°C
Wind Press
QNH
hPa
Press
MSL
hPa
Rain
since 9 am
mm
Dir
 
Spd
km/h
Gust
km/h
Spd
kts
Gust
kts
18/11:30pm - - - - - NE 13 17 7 9 1012.4 - -
18/11:24pm - - - - - NE 13 - 7 - - 1012.3 -
18/11:00pm - - - - - NE 15 17 8 9 1012.4 - -
18/10:30pm - - - - - NNE 15 19 8 10 1012.3 - -
18/10:24pm - - - - - NNE 15 - 8 - - 1012.3 -
18/10:00pm - - - - - NNE 13 17 7 9 1012.2 - -
18/09:30pm - - - - - NNE 13 17 7 9 1012.2 - -
18/09:24pm - - - - - NNE 15 - 8 - - 1011.9 -
18/09:00pm - - - - - NNE 11 17 6 9 1011.8 - -
18/08:30pm - - - - - N 7 11 4 6 1011.9 - -
18/08:24pm - - - - - N 7 - 4 - - 1011.9 -
18/08:00pm - - - - - N 6 11 3 6 1011.9 - -
18/07:30pm - - - - - N 9 13 5 7 1011.2 - -
18/07:24pm - - - - - N 9 - 5 - - 1011.1 -
18/07:00pm - - - - - N 11 15 6 8 1010.8 - -
18/06:30pm - - - - - NNE 15 19 8 10 1010.2 - -
18/06:24pm - - - - - NNE 13 - 7 - - 1010.1 -
18/06:00pm - - - - - NNE 15 19 8 10 1010.1 - -
18/05:30pm - - - - - NNE 17 22 9 12 1009.6 - -
18/05:24pm - - - - - NNE 17 - 9 - - 1009.4 -
18/05:00pm - - - - - NE 9 20 5 11 1009.3 - -
18/04:30pm - - - - - NE 13 17 7 9 1009.4 - -
18/04:24pm - - - - - NE 13 - 7 - - 1009.4 -
18/04:00pm - - - - - NE 13 17 7 9 1009.7 - -
18/03:30pm - - - - - NNE 15 19 8 10 1009.7 - -
18/03:24pm - - - - - NNE 13 - 7 - - 1009.7 -
18/03:00pm - - - - - NNE 13 17 7 9 1010.0 - -
18/02:30pm - - - - - NNE 15 19 8 10 1010.3 - -
18/02:24pm - - - - - NNE 15 - 8 - - 1010.3 -
18/02:00pm - - - - - NNE 11 13 6 7 1010.8 - -
18/01:30pm - - - - - NNE 13 17 7 9 1011.2 - -
18/01:24pm - - - - - NNE 11 - 6 - - 1011.2 -
18/01:00pm - - - - - NNE 13 17 7 9 1011.5 - -
18/12:30pm - - - - - NE 15 20 8 11 1011.6 - -
18/12:24pm - - - - - NE 17 - 9 - - 1011.5 -
18/12:00pm - - - - - NE 15 17 8 9 1011.9 - -
18/11:30am - - - - - NE 17 20 9 11 1012.2 - -
18/11:24am - - - - - NE 17 - 9 - - 1012.2 -
18/11:00am - - - - - NE 17 20 9 11 1012.4 - -
18/10:30am - - - - - NE 17 20 9 11 1012.4 - -
18/10:24am - - - - - NE 17 - 9 - - 1012.3 -
18/10:00am - - - - - NE 19 24 10 13 1012.5 - -
18/09:30am - - - - - NE 22 26 12 14 1012.5 - -
18/09:24am - - - - - NE 20 - 11 - - 1012.3 -
18/09:00am - - - - - NE 20 26 11 14 1012.5 - -
18/08:30am - - - - - NE 20 24 11 13 1012.3 - -
18/08:24am - - - - - NE 20 - 11 - - 1012.2 -
18/08:00am - - - - - NE 19 22 10 12 1012.5 - -
18/07:30am - - - - - NE 19 22 10 12 1012.4 - -
18/07:24am - - - - - NE 19 - 10 - - 1012.3 -
18/07:00am - - - - - NE 19 22 10 12 1012.2 - -
18/06:30am - - - - - NE 19 24 10 13 1011.8 - -
18/06:24am - - - - - NE 19 - 10 - - 1011.7 -
18/06:00am - - - - - NE 19 24 10 13 1011.3 - -
18/05:30am - - - - - NE 20 24 11 13 1010.8 - -
18/05:24am - - - - - NE 19 - 10 - - 1010.6 -
18/05:00am - - - - - NE 19 22 10 12 1010.4 - -
18/04:30am - - - - - NE 17 20 9 11 1010.2 - -
18/04:24am - - - - - NE 17 - 9 - - 1010.0 -
18/04:00am - - - - - NNE 17 20 9 11 1009.9 - -
18/03:30am - - - - - NNE 15 17 8 9 1009.9 - -
18/03:24am - - - - - NNE 13 - 7 - - 1009.8 -
18/03:00am - - - - - NNE 13 17 7 9 1009.7 - -
18/02:30am - - - - - NNE 17 20 9 11 1009.6 - -
18/02:24am - - - - - NNE 17 - 9 - - 1009.4 -
18/02:00am - - - - - NNE 19 22 10 12 1009.4 - -
18/01:30am - - - - - NNE 19 24 10 13 1009.7 - -
18/01:24am - - - - - NNE 20 - 11 - - 1009.6 -
18/01:00am - - - - - NNE 20 22 11 12 1009.8 - -
18/12:30am - - - - - NNE 20 24 11 13 1010.2 - -
18/12:24am - - - - - NNE 22 - 12 - - 1010.2 -
18/12:00am - - - - - NNE 19 22 10 12 1010.5 - -
 
Date/Time
EST
Temp
°C
App
Temp
°C
Dew
Point
Rel
Hum
%
Delta-T
°C
Wind Press
QNH
hPa
Press
MSL
hPa
Rain
since 9 am
mm
Dir
 
Spd
km/h
Gust
km/h
Spd
kts
Gust
kts
17/11:30pm - - - - - NE 20 24 11 13 1010.6 - -
17/11:24pm - - - - - NE 19 - 10 - - 1010.7 -
17/11:00pm - - - - - NE 17 20 9 11 1010.8 - -
17/10:30pm - - - - - NE 15 20 8 11 1010.8 - -
17/10:24pm - - - - - NE 15 - 8 - - 1010.8 -
17/10:00pm - - - - - NE 17 20 9 11 1010.9 - -
17/09:30pm - - - - - NE 17 20 9 11 1010.5 - -
17/09:24pm - - - - - NE 15 - 8 - - 1010.4 -
17/09:00pm - - - - - NNE 19 22 10 12 1010.2 - -
17/08:30pm - - - - - NE 17 20 9 11 1009.7 - -
17/08:24pm - - - - - NE 19 - 10 - - 1009.7 -
17/08:00pm - - - - - NE 19 20 10 11 1009.7 - -
17/07:30pm - - - - - NNE 13 20 7 11 1009.4 - -
17/07:24pm - - - - - NNE 17 - 9 - - 1009.3 -
17/07:00pm - - - - - NE 17 24 9 13 1009.0 - -
17/06:30pm - - - - - NNE 19 24 10 13 1008.8 - -
17/06:24pm - - - - - NNE 19 - 10 - - 1008.7 -
17/06:00pm - - - - - NNE 17 20 9 11 1008.7 - -
17/05:30pm - - - - - NNE 17 20 9 11 1008.6 - -
17/05:24pm - - - - - NNE 17 - 9 - - 1008.4 -
17/05:00pm - - - - - NNE 17 20 9 11 1008.3 - -
17/04:30pm - - - - - NE 13 15 7 8 1008.5 - -
17/04:24pm - - - - - NE 11 - 6 - - 1008.4 -
17/04:00pm - - - - - NE 11 15 6 8 1008.5 - -
17/03:30pm - - - - - NE 11 15 6 8 1008.4 - -
17/03:24pm - - - - - NE 11 - 6 - - 1008.3 -
17/03:00pm - - - - - NNE 11 17 6 9 1008.5 - -
17/02:30pm - - - - - NE 13 17 7 9 1008.7 - -
17/02:24pm - - - - - NE 15 - 8 - - 1008.6 -
17/02:00pm - - - - - NE 13 17 7 9 1009.1 - -
17/01:30pm - - - - - NE 15 19 8 10 1009.2 - -
17/01:24pm - - - - - NE 15 - 8 - - 1009.1 -
17/01:00pm - - - - - NE 13 17 7 9 1009.7 - -
17/12:30pm - - - - - NE 15 17 8 9 1010.0 - -
17/12:24pm - - - - - NE 13 - 7 - - 1010.0 -
17/12:00pm - - - - - NE 15 19 8 10 1010.2 - -
17/11:30am - - - - - NE 15 19 8 10 1010.2 - -
17/11:24am - - - - - NE 15 - 8 - - 1010.2 -
17/11:00am - - - - - ENE 15 20 8 11 1010.6 - -
17/10:30am - - - - - ENE 15 19 8 10 1010.7 - -
17/10:24am - - - - - ENE 17 - 9 - - 1010.6 -
17/10:00am - - - - - ENE 17 20 9 11 1010.6 - -
17/09:30am - - - - - ENE 19 24 10 13 1010.4 - -
17/09:24am - - - - - ENE 20 - 11 - - 1010.3 -
17/09:00am - - - - - ENE 20 24 11 13 1010.2 - -
17/08:30am - - - - - ENE 22 24 12 13 1010.0 - -
17/08:24am - - - - - ENE 22 - 12 - - 1009.9 -
17/08:00am - - - - - ENE 20 24 11 13 1010.0 - -
17/07:30am - - - - - ENE 20 24 11 13 1010.0 - -
17/07:24am - - - - - ENE 20 - 11 - - 1009.8 -
17/07:00am - - - - - ENE 22 24 12 13 1009.7 - -
17/06:30am - - - - - ENE 22 26 12 14 1009.4 - -
17/06:24am - - - - - ENE 22 - 12 - - 1009.3 -
17/06:00am - - - - - ENE 22 26 12 14 1009.2 - -
17/05:30am - - - - - ENE 22 26 12 14 1008.8 - -
17/05:24am - - - - - ENE 22 - 12 - - 1008.7 -
17/05:00am - - - - - E 24 28 13 15 1008.3 - -
17/04:30am - - - - - E 24 26 13 14 1008.0 - -
17/04:24am - - - - - E 24 - 13 - - 1007.9 -
17/04:00am - - - - - E 24 28 13 15 1007.9 - -
17/03:30am - - - - - ENE 26 28 14 15 1007.7 - -
17/03:24am - - - - - ENE 24 - 13 - - 1007.6 -
17/03:00am - - - - - ENE 24 28 13 15 1007.7 - -
17/02:30am - - - - - ENE 24 30 13 16 1007.9 - -
17/02:24am - - - - - ENE 24 - 13 - - 1007.9 -
17/02:00am - - - - - ENE 22 26 12 14 1008.2 - -
17/01:30am - - - - - ENE 20 24 11 13 1008.4 - -
17/01:24am - - - - - ENE 20 - 11 - - 1008.4 -
17/01:00am - - - - - ENE 20 22 11 12 1008.7 - -
17/12:30am - - - - - ENE 19 22 10 12 1008.9 - -
17/12:24am - - - - - ENE 19 - 10 - - 1008.9 -
17/12:00am - - - - - ENE 19 22 10 12 1009.2 - -
 
Date/Time
EST
Temp
°C
App
Temp
°C
Dew
Point
Rel
Hum
%
Delta-T
°C
Wind Press
QNH
hPa
Press
MSL
hPa
Rain
since 9 am
mm
Dir
 
Spd
km/h
Gust
km/h
Spd
kts
Gust
kts
16/11:30pm - - - - - ENE 19 20 10 11 1009.6 - -
16/11:24pm - - - - - ENE 19 - 10 - - 1009.5 -
16/11:00pm - - - - - E 17 19 9 10 1010.0 - -
16/10:30pm - - - - - E 15 17 8 9 1010.1 - -
16/10:24pm - - - - - E 15 - 8 - - 1010.1 -
16/10:00pm - - - - - E 15 17 8 9 1010.0 - -
16/09:30pm - - - - - ENE 13 17 7 9 1009.9 - -
16/09:24pm - - - - - ENE 13 - 7 - - 1009.8 -
16/09:00pm - - - - - ENE 15 17 8 9 1009.9 - -
16/08:30pm - - - - - ENE 11 11 6 6 1009.9 - -
16/08:24pm - - - - - ENE 11 - 6 - - 1009.8 -
16/08:00pm - - - - - ENE 9 11 5 6 1009.8 - -
16/07:30pm - - - - - ENE 9 15 5 8 1009.6 - -
16/07:24pm - - - - - ENE 11 - 6 - - 1009.5 -

Other Formats:

Comma delimited format used in spreadsheet applications
http://www.bom.gov.au/fwo/IDQ60801/IDQ60801.94290.axf

JavaScript Object Notation format (JSON) in row-major order
http://www.bom.gov.au/fwo/IDQ60801/IDQ60801.94290.json